Time;durP1;ratioP1;P1;durP2;ratioP2;P2;SDS_P1;SDS_P2;PMS_P1;PMS_P2;Temp;Humidity;BMP_temperature;BMP_pressure;BME280_temperature;BME280_humidity;BME280_pressure;Samples;Min_cycle;Max_cycle;Signal;HPM_P1;HPM_P2
2022/12/31 00:00:05;;;;;;;;;;;;;;;-144.99;100.00;52578.53;4986814;28;19950;-77
2022/12/31 00:02:33;;;;;;;;;;;;;;;-144.99;100.00;52509.25;4974848;28;19969;-77
2022/12/31 00:04:59;;;;;;;;;;;;;;;-144.99;100.00;52558.16;4984617;28;20383;-77
2022/12/31 00:07:26;;;;;;;;;;;;;;;-144.99;100.00;52558.16;4981487;28;19945;-75
2022/12/31 00:09:53;;;;;;;;;;;;;;;-144.99;100.00;52545.94;4987238;28;19950;-78
2022/12/31 00:12:19;;;;;;;;;;;;;;;-144.99;100.00;52521.47;4981996;28;20208;-76
2022/12/31 00:14:47;;;;;;;;;;;;;;;-144.99;100.00;52566.31;4982333;28;20441;-75
2022/12/31 00:17:14;;;;;;;;;;;;;;;-144.99;100.00;52529.63;4989637;28;19951;-74
2022/12/31 00:19:42;;;;;;;;;;;;;;;-144.99;100.00;52539.81;5005742;28;19960;-77
2022/12/31 00:22:08;;;;;;;;;;;;;;;-144.99;100.00;52543.91;4983658;28;20573;-75
2022/12/31 00:24:35;;;;;;;;;;;;;;;-144.99;100.00;52562.25;4637443;28;10000177;-77
2022/12/31 00:27:02;;;;;;;;;;;;;;;-144.99;100.00;52541.84;4990318;28;20027;-74
2022/12/31 00:29:28;;;;;;;;;;;;;;;-144.99;100.00;52523.50;4985027;28;19944;-76
2022/12/31 00:31:55;;;;;;;;;;;;;;;-144.99;100.00;52517.41;4984932;28;20446;-76
2022/12/31 00:34:21;;;;;;;;;;;;;;;-144.99;100.00;52513.31;4982190;28;19970;-76
2022/12/31 00:36:49;;;;;;;;;;;;;;;-144.99;100.00;52574.47;4984917;28;21355;-75
2022/12/31 00:39:16;;;;;;;;;;;;;;;-144.99;100.00;52556.13;4981031;28;20045;-76
2022/12/31 00:41:43;;;;;;;;;;;;;;;-144.99;100.00;52503.13;4985432;28;19958;-77
2022/12/31 00:44:10;;;;;;;;;;;;;;;-144.99;100.00;52517.41;4986098;28;19950;-76
2022/12/31 00:46:37;;;;;;;;;;;;;;;-144.99;100.00;52529.63;4981243;28;20473;-77
2022/12/31 00:49:04;;;;;;;;;;;;;;;-144.99;100.00;52576.50;4987753;28;20399;-74
2022/12/31 00:51:30;;;;;;;;;;;;;;;-144.99;100.00;52521.47;4986821;28;19983;-75
2022/12/31 00:53:59;;;;;;;;;;;;;;;-144.99;100.00;52537.78;4988202;28;19946;-76
2022/12/31 00:56:26;;;;;;;;;;;;;;;-144.99;100.00;52543.91;4986947;28;20339;-75
2022/12/31 00:58:53;;;;;;;;;;;;;;;-144.99;100.00;52586.69;4983824;28;19948;-74
2022/12/31 01:01:21;;;;;;;;;;;;;;;-144.99;100.00;52547.97;4984789;28;19970;-75
2022/12/31 01:03:48;;;;;;;;;;;;;;;-144.99;100.00;52590.78;4981946;28;19941;-74
2022/12/31 01:06:15;;;;;;;;;;;;;;;-144.99;100.00;52513.31;4987087;28;19952;-76
2022/12/31 01:08:41;;;;;;;;;;;;;;;-144.99;100.00;52598.94;4985855;28;19942;-75
2022/12/31 01:11:20;;;;;;;;;;;;;;;-144.99;100.00;52556.13;4987987;28;19970;-77
2022/12/31 01:13:48;;;;;;;;;;;;;;;-144.99;100.00;52554.09;4988012;28;19943;-77
2022/12/31 01:16:15;;;;;;;;;;;;;;;-144.99;100.00;52570.38;4987360;28;19966;-76
2022/12/31 01:18:42;;;;;;;;;;;;;;;-144.99;100.00;52547.97;4985747;28;19952;-73
2022/12/31 01:21:10;;;;;;;;;;;;;;;-144.99;100.00;52533.69;4989432;28;20033;-76
2022/12/31 01:23:36;;;;;;;;;;;;;;;-144.99;100.00;52598.94;4988423;28;19947;-76
2022/12/31 01:26:04;;;;;;;;;;;;;;;-144.99;100.00;52556.13;4994621;28;19939;-75
2022/12/31 01:28:32;;;;;;;;;;;;;;;-144.99;100.00;52552.03;4987082;28;19951;-76
2022/12/31 01:30:59;;;;;;;;;;;;;;;-144.99;100.00;52576.50;4984668;28;19972;-76
2022/12/31 01:33:26;;;;;;;;;;;;;;;-144.99;100.00;52562.25;4984815;28;20407;-78
2022/12/31 01:35:52;;;;;;;;;;;;;;;-144.99;100.00;52550.00;4997904;28;19965;-82
2022/12/31 01:38:19;;;;;;;;;;;;;;;-144.99;100.00;52513.31;5011152;28;19932;-77
2022/12/31 01:40:45;;;;;;;;;;;;;;;-144.99;100.00;52525.56;4642036;28;9999633;-75
2022/12/31 01:43:15;;;;;;;;;;;;;;;-144.99;100.00;52501.09;4973741;28;20036;-75
2022/12/31 01:45:43;;;;;;;;;;;;;;;-144.99;100.00;52517.41;4985927;28;20266;-75
2022/12/31 01:48:12;;;;;;;;;;;;;;;-144.99;100.00;52552.03;4985431;28;19944;-76
2022/12/31 01:50:39;;;;;;;;;;;;;;;-144.99;100.00;52537.78;4984901;28;19963;-74
2022/12/31 01:53:07;;;;;;;;;;;;;;;-144.99;100.00;52533.69;4984666;28;19945;-77
2022/12/31 01:55:35;;;;;;;;;;;;;;;-144.99;100.00;52562.25;4984653;28;20320;-75
2022/12/31 01:58:05;;;;;;;;;;;;;;;-144.99;100.00;52533.69;4979240;28;20399;-75
2022/12/31 02:00:32;;;;;;;;;;;;;;;-144.99;100.00;52562.25;4973516;28;19989;-74
2022/12/31 02:03:00;;;;;;;;;;;;;;;-144.99;100.00;52537.78;4984016;28;19941;-77
2022/12/31 02:05:29;;;;;;;;;;;;;;;-144.99;100.00;52556.13;4980027;28;20413;-76
2022/12/31 02:07:57;;;;;;;;;;;;;;;-144.99;100.00;52533.69;4987850;28;19993;-79
2022/12/31 02:10:24;;;;;;;;;;;;;;;-144.99;100.00;52543.91;4983939;28;19978;-74
2022/12/31 02:12:50;;;;;;;;;;;;;;;-144.99;100.00;52550.00;4987432;28;19955;-74
2022/12/31 02:15:17;;;;;;;;;;;;;;;-144.99;100.00;52509.25;5013086;23;19974;-76
2022/12/31 02:17:49;;;;;;;;;;;;;;;-144.99;100.00;52554.09;4984789;28;20329;-76
2022/12/31 02:20:30;;;;;;;;;;;;;;;-144.99;100.00;52574.47;4986880;28;19954;-73
2022/12/31 02:23:09;;;;;;;;;;;;;;;-144.99;100.00;52566.31;4991741;28;19983;-75
2022/12/31 02:25:49;;;;;;;;;;;;;;;-144.99;100.00;52537.78;4975518;28;19962;-74
2022/12/31 02:28:25;;;;;;;;;;;;;;;-144.99;100.00;52560.19;4997998;28;20507;-74
2022/12/31 02:30:56;;;;;;;;;;;;;;;-144.99;100.00;52550.00;4997196;28;19940;-74
2022/12/31 02:33:27;;;;;;;;;;;;;;;-144.99;100.00;52566.31;4983722;28;19952;-74
2022/12/31 02:36:03;;;;;;;;;;;;;;;-144.99;100.00;52558.16;5107398;27;20410;-62
2022/12/31 02:38:31;;;;;;;;;;;;;;;-144.99;100.00;52521.47;5086803;28;20378;-62
2022/12/31 02:40:59;;;;;;;;;;;;;;;-144.99;100.00;52562.25;5095817;28;19956;-62
2022/12/31 02:43:25;;;;;;;;;;;;;;;-144.99;100.00;52556.13;5105157;28;20200;-62
2022/12/31 02:46:05;;;;;;;;;;;;;;;-144.99;100.00;52574.47;5085290;28;19985;-62
2022/12/31 02:48:39;;;;;;;;;;;;;;;-144.99;100.00;52586.69;5087939;28;20289;-62
2022/12/31 02:51:12;;;;;;;;;;;;;;;-144.99;100.00;52521.47;5091016;28;20335;-62
2022/12/31 02:53:52;;;;;;;;;;;;;;;-144.99;100.00;52525.56;5088868;28;19949;-62
2022/12/31 02:56:22;;;;;;;;;;;;;;;-144.99;100.00;52541.84;5086262;28;20037;-63
2022/12/31 03:02:18;;;;;;;;;;;;;;;-144.99;100.00;52543.91;5038031;28;19942;-63
2022/12/31 03:04:47;;;;;;;;;;;;;;;-144.99;100.00;52515.34;5036798;28;19952;-63
2022/12/31 03:07:17;;;;;;;;;;;;;;;-144.99;100.00;52525.56;5067440;28;20369;-64
2022/12/31 03:09:44;;;;;;;;;;;;;;;-144.99;100.00;52554.09;5094553;28;19955;-64
2022/12/31 03:14:56;;;;;;;;;;;;;;;-144.99;100.00;52572.44;5087035;28;20436;-63
2022/12/31 03:17:23;;;;;;;;;;;;;;;-144.99;100.00;52568.34;5085567;28;19942;-63
2022/12/31 03:22:38;;;;;;;;;;;;;;;-144.99;100.00;52533.69;5088292;28;19966;-67
2022/12/31 03:27:50;;;;;;;;;;;;;;;-144.99;100.00;52533.69;5088004;28;19950;-68
2022/12/31 03:30:17;;;;;;;;;;;;;;;-144.99;100.00;52547.97;5085954;28;19956;-67
2022/12/31 03:32:45;;;;;;;;;;;;;;;-144.99;100.00;52558.16;5086541;28;19946;-68
2022/12/31 03:35:12;;;;;;;;;;;;;;;-144.99;100.00;52537.78;5088967;28;20041;-62
2022/12/31 03:37:40;;;;;;;;;;;;;;;-144.99;100.00;52513.31;5092569;28;19943;-63
2022/12/31 03:40:08;;;;;;;;;;;;;;;-144.99;100.00;52564.28;5094952;28;19963;-62
2022/12/31 03:42:34;;;;;;;;;;;;;;;-144.99;100.00;52550.00;5077950;28;20000;-65
2022/12/31 03:45:01;;;;;;;;;;;;;;;-144.99;100.00;52537.78;5092992;28;19948;-66
2022/12/31 03:47:28;;;;;;;;;;;;;;;-144.99;100.00;52521.47;5070434;28;19947;-68
2022/12/31 03:49:54;;;;;;;;;;;;;;;-144.99;100.00;52560.19;5080452;28;19963;-70
2022/12/31 03:52:21;;;;;;;;;;;;;;;-144.99;100.00;52537.78;5080588;28;19944;-70
2022/12/31 03:54:49;;;;;;;;;;;;;;;-144.99;100.00;52574.47;5071460;28;19953;-70
2022/12/31 03:57:15;;;;;;;;;;;;;;;-144.99;100.00;52529.63;5080065;28;20786;-66
2022/12/31 03:59:42;;;;;;;;;;;;;;;-144.99;100.00;52531.66;5078289;28;19958;-68
2022/12/31 04:02:08;;;;;;;;;;;;;;;-144.99;100.00;52529.63;5072392;28;19950;-65
2022/12/31 04:04:35;;;;;;;;;;;;;;;-144.99;100.00;52547.97;5074934;28;19991;-64
2022/12/31 04:07:01;;;;;;;;;;;;;;;-144.99;100.00;52550.00;5079619;28;20019;-64
2022/12/31 04:09:28;;;;;;;;;;;;;;;-144.99;100.00;52513.31;5077832;28;20032;-63
2022/12/31 04:11:56;;;;;;;;;;;;;;;-144.99;100.00;52521.47;5071252;28;19946;-63
2022/12/31 04:14:22;;;;;;;;;;;;;;;-144.99;100.00;52541.84;5070903;28;19960;-63
2022/12/31 04:16:49;;;;;;;;;;;;;;;-144.99;100.00;52552.03;5078433;28;20392;-69
2022/12/31 04:19:16;;;;;;;;;;;;;;;-144.99;100.00;52550.00;5081637;28;19953;-68
2022/12/31 04:21:42;;;;;;;;;;;;;;;-144.99;100.00;52523.50;5083535;28;19950;-68
2022/12/31 04:24:09;;;;;;;;;;;;;;;-144.99;100.00;52545.94;5073289;28;19956;-68
2022/12/31 04:26:36;;;;;;;;;;;;;;;-144.99;100.00;52533.69;5084793;28;19948;-68
2022/12/31 04:29:05;;;;;;;;;;;;;;;-144.99;100.00;52556.13;5077502;28;19957;-67
2022/12/31 04:31:31;;;;;;;;;;;;;;;-144.99;100.00;52586.69;5076991;28;20188;-68
2022/12/31 04:33:58;;;;;;;;;;;;;;;-144.99;100.00;52531.66;5081623;28;19961;-67
2022/12/31 04:36:24;;;;;;;;;;;;;;;-144.99;100.00;52541.84;5072076;28;19994;-66
2022/12/31 04:38:51;;;;;;;;;;;;;;;-144.99;100.00;52558.16;5074339;28;20006;-66
2022/12/31 04:41:18;;;;;;;;;;;;;;;-144.99;100.00;52578.53;5077056;28;19944;-66
2022/12/31 04:43:46;;;;;;;;;;;;;;;-144.99;100.00;52545.94;5075559;28;20529;-65
2022/12/31 04:46:14;;;;;;;;;;;;;;;-144.99;100.00;52554.09;5083282;28;19998;-65
2022/12/31 04:48:40;;;;;;;;;;;;;;;-144.99;100.00;52552.03;5078942;28;19954;-66
2022/12/31 04:51:07;;;;;;;;;;;;;;;-144.99;100.00;52541.84;5073717;28;19949;-67
2022/12/31 04:53:34;;;;;;;;;;;;;;;-144.99;100.00;52519.44;5070876;28;20026;-68
2022/12/31 04:56:00;;;;;;;;;;;;;;;-144.99;100.00;52533.69;5076184;28;20579;-68
2022/12/31 04:58:27;;;;;;;;;;;;;;;-144.99;100.00;52541.84;5076033;28;19945;-68
2022/12/31 05:00:54;;;;;;;;;;;;;;;-144.99;100.00;52558.16;5072739;28;19952;-69
2022/12/31 05:03:23;;;;;;;;;;;;;;;-144.99;100.00;52521.47;5078178;28;19943;-68
2022/12/31 05:05:49;;;;;;;;;;;;;;;-144.99;100.00;52523.50;5084760;28;19952;-68
2022/12/31 05:08:17;;;;;;;;;;;;;;;-144.99;100.00;52558.16;5074076;28;20026;-68
2022/12/31 05:10:44;;;;;;;;;;;;;;;-144.99;100.00;52598.94;5070775;28;19962;-68
2022/12/31 05:13:11;;;;;;;;;;;;;;;-144.99;100.00;52533.69;5071867;28;20004;-73
2022/12/31 05:15:37;;;;;;;;;;;;;;;-144.99;100.00;52550.00;5073171;28;19965;-72
2022/12/31 05:18:04;;;;;;;;;;;;;;;-144.99;100.00;52554.09;5066629;28;19953;-71
2022/12/31 05:20:32;;;;;;;;;;;;;;;-144.99;100.00;52550.00;5067108;28;19957;-72
2022/12/31 05:22:59;;;;;;;;;;;;;;;-144.99;100.00;52529.63;5066903;28;20377;-72
2022/12/31 05:25:25;;;;;;;;;;;;;;;-144.99;100.00;52545.94;5070549;28;20010;-72
2022/12/31 05:27:52;;;;;;;;;;;;;;;-144.99;100.00;52531.66;5072606;28;19943;-73
2022/12/31 05:30:18;;;;;;;;;;;;;;;-144.99;100.00;52541.84;5057909;28;19967;-73
2022/12/31 05:32:45;;;;;;;;;;;;;;;-144.99;100.00;52550.00;5072303;28;19947;-71
2022/12/31 05:35:12;;;;;;;;;;;;;;;-144.99;100.00;52541.84;5072041;28;20015;-71
2022/12/31 05:37:40;;;;;;;;;;;;;;;-144.99;100.00;52533.69;5069239;28;19948;-73
2022/12/31 05:40:07;;;;;;;;;;;;;;;-144.99;100.00;52523.50;5073509;28;20019;-73
2022/12/31 05:42:34;;;;;;;;;;;;;;;-144.99;100.00;52525.56;5076742;28;19957;-75
2022/12/31 05:45:00;;;;;;;;;;;;;;;-144.99;100.00;52519.44;5076930;28;19941;-74
2022/12/31 05:47:27;;;;;;;;;;;;;;;-144.99;100.00;52586.69;5071024;28;19940;-78
2022/12/31 05:49:54;;;;;;;;;;;;;;;-144.99;100.00;52562.25;5078500;28;19958;-71
2022/12/31 05:52:21;;;;;;;;;;;;;;;-144.99;100.00;52562.25;5073009;28;19958;-70
2022/12/31 05:54:49;;;;;;;;;;;;;;;-144.99;100.00;52529.63;5061448;28;19941;-70
2022/12/31 05:57:15;;;;;;;;;;;;;;;-144.99;100.00;52529.63;5070575;28;19939;-70
2022/12/31 05:59:42;;;;;;;;;;;;;;;-144.99;100.00;52533.69;5077078;28;19966;-72
2022/12/31 06:02:08;;;;;;;;;;;;;;;-144.99;100.00;52525.56;5073853;28;19952;-71
2022/12/31 06:04:35;;;;;;;;;;;;;;;-144.99;100.00;52541.84;5077201;28;20331;-71
2022/12/31 06:07:02;;;;;;;;;;;;;;;-144.99;100.00;52513.31;5071784;28;20001;-71
2022/12/31 06:09:28;;;;;;;;;;;;;;;-144.99;100.00;52497.00;5071634;28;19960;-71
2022/12/31 06:11:56;;;;;;;;;;;;;;;-144.99;100.00;52562.25;5069933;28;20010;-72
2022/12/31 06:14:23;;;;;;;;;;;;;;;-144.99;100.00;52578.53;5073909;28;19945;-72
2022/12/31 06:16:49;;;;;;;;;;;;;;;-144.99;100.00;52543.91;5076746;28;20321;-72
2022/12/31 06:19:16;;;;;;;;;;;;;;;-144.99;100.00;52552.03;5082089;28;20061;-72
2022/12/31 06:21:43;;;;;;;;;;;;;;;-144.99;100.00;52541.84;5075047;28;19941;-72
2022/12/31 06:24:09;;;;;;;;;;;;;;;-144.99;100.00;52566.31;5079070;28;19947;-73
2022/12/31 06:26:36;;;;;;;;;;;;;;;-144.99;100.00;52550.00;5071632;28;19950;-72
2022/12/31 06:29:04;;;;;;;;;;;;;;;-144.99;100.00;52521.47;5070917;28;20327;-72
2022/12/31 06:31:31;;;;;;;;;;;;;;;-144.99;100.00;52545.94;5076970;28;19939;-73
2022/12/31 06:33:57;;;;;;;;;;;;;;;-144.99;100.00;52541.84;5068733;28;19970;-62
2022/12/31 06:36:25;;;;;;;;;;;;;;;-144.99;100.00;52545.94;5072141;28;19972;-62
2022/12/31 06:38:52;;;;;;;;;;;;;;;-144.99;100.00;52525.56;5067942;28;20208;-62
2022/12/31 06:41:19;;;;;;;;;;;;;;;-144.99;100.00;52574.47;5070496;28;19944;-62
2022/12/31 06:43:46;;;;;;;;;;;;;;;-144.99;100.00;52566.31;5071037;28;19947;-62
2022/12/31 06:46:15;;;;;;;;;;;;;;;-144.99;100.00;52550.00;5067092;28;19940;-62
2022/12/31 06:48:43;;;;;;;;;;;;;;;-144.99;100.00;52560.19;5077820;28;19962;-63
2022/12/31 06:51:11;;;;;;;;;;;;;;;-144.99;100.00;52550.00;5073977;28;19944;-68
2022/12/31 06:53:39;;;;;;;;;;;;;;;-144.99;100.00;52545.94;5068386;28;19944;-69
2022/12/31 06:56:06;;;;;;;;;;;;;;;-144.99;100.00;52578.53;5072611;28;20045;-68
2022/12/31 06:58:33;;;;;;;;;;;;;;;-144.99;100.00;52568.34;5076808;28;19942;-69
2022/12/31 07:01:06;;;;;;;;;;;;;;;-144.99;100.00;52527.59;5074101;28;20016;-68
2022/12/31 07:03:40;;;;;;;;;;;;;;;-144.99;100.00;52586.69;5080544;28;19949;-68
2022/12/31 07:06:09;;;;;;;;;;;;;;;-144.99;100.00;52529.63;5083535;28;19970;-66
2022/12/31 07:08:44;;;;;;;;;;;;;;;-144.99;100.00;52582.63;5068183;28;19941;-67
2022/12/31 07:11:12;;;;;;;;;;;;;;;-144.99;100.00;52529.63;5070388;28;20007;-67
2022/12/31 07:13:59;;;;;;;;;;;;;;;-144.99;100.00;52517.41;5079327;28;20377;-66
2022/12/31 07:16:32;;;;;;;;;;;;;;;-144.99;100.00;52545.94;5083262;28;20399;-72
2022/12/31 07:19:06;;;;;;;;;;;;;;;-144.99;100.00;52574.47;5071524;28;19966;-72
2022/12/31 07:21:35;;;;;;;;;;;;;;;-144.99;100.00;52517.41;5084641;28;19967;-73
2022/12/31 07:24:02;;;;;;;;;;;;;;;-144.99;100.00;52525.56;5074882;28;20485;-72
2022/12/31 07:26:35;;;;;;;;;;;;;;;-144.99;100.00;52517.41;5068787;28;19969;-72
2022/12/31 07:29:10;;;;;;;;;;;;;;;-144.99;100.00;52558.16;5078352;28;19963;-72
2022/12/31 07:31:47;;;;;;;;;;;;;;;-144.99;100.00;52521.47;5088177;28;20403;-66
2022/12/31 07:34:19;;;;;;;;;;;;;;;-144.99;100.00;52558.16;5081508;28;19952;-65
2022/12/31 07:36:55;;;;;;;;;;;;;;;-144.99;100.00;52556.13;5065259;28;19959;-66
2022/12/31 07:39:25;;;;;;;;;;;;;;;-144.99;100.00;52566.31;5071101;28;20419;-66
2022/12/31 07:41:54;;;;;;;;;;;;;;;-144.99;100.00;52529.63;5068995;28;19941;-66
2022/12/31 07:44:35;;;;;;;;;;;;;;;-144.99;100.00;52570.38;5072217;28;19947;-67
2022/12/31 07:47:03;;;;;;;;;;;;;;;-144.99;100.00;52566.31;5074126;28;19969;-67
2022/12/31 07:49:33;;;;;;;;;;;;;;;-144.99;100.00;52562.25;5069969;28;20141;-67
2022/12/31 07:52:00;;;;;;;;;;;;;;;-144.99;100.00;52574.47;5074324;28;19951;-67
2022/12/31 07:54:26;;;;;;;;;;;;;;;-144.99;100.00;52529.63;5078839;28;19945;-67
2022/12/31 07:56:53;;;;;;;;;;;;;;;-144.99;100.00;52566.31;5077407;28;19960;-66
2022/12/31 07:59:28;;;;;;;;;;;;;;;-144.99;100.00;52513.31;5078443;28;19955;-69
2022/12/31 08:01:58;;;;;;;;;;;;;;;-144.99;100.00;52521.47;5068926;28;19996;-69
2022/12/31 08:04:28;;;;;;;;;;;;;;;-144.99;100.00;52578.53;5082098;28;20018;-69
2022/12/31 08:07:01;;;;;;;;;;;;;;;-144.99;100.00;52537.78;5078272;28;19944;-69
2022/12/31 08:09:35;;;;;;;;;;;;;;;-144.99;100.00;52576.50;5066356;28;20375;-71
2022/12/31 08:12:02;;;;;;;;;;;;;;;-144.99;100.00;52521.47;5089123;28;19954;-70
2022/12/31 08:14:29;;;;;;;;;;;;;;;-144.99;100.00;52560.19;5083612;28;20466;-68
2022/12/31 08:16:56;;;;;;;;;;;;;;;-144.99;100.00;52554.09;5078581;22;20016;-68
2022/12/31 08:19:25;;;;;;;;;;;;;;;-144.99;100.00;52519.44;5043643;28;19957;-69
2022/12/31 08:22:03;;;;;;;;;;;;;;;-144.99;100.00;52566.31;5047444;28;20043;-66
2022/12/31 08:24:35;;;;;;;;;;;;;;;-144.99;100.00;52531.66;5041948;28;19999;-68
2022/12/31 08:27:05;;;;;;;;;;;;;;;-144.99;100.00;52531.66;5048408;28;19968;-67
2022/12/31 08:29:35;;;;;;;;;;;;;;;-144.99;100.00;52501.09;5049061;28;19962;-68
2022/12/31 08:32:06;;;;;;;;;;;;;;;-144.99;100.00;52537.78;5046733;28;19948;-67
2022/12/31 08:34:37;;;;;;;;;;;;;;;-144.99;100.00;52554.09;5048514;28;19951;-67
2022/12/31 08:37:08;;;;;;;;;;;;;;;-144.99;100.00;52550.00;5047052;28;19961;-68
2022/12/31 08:39:44;;;;;;;;;;;;;;;-144.99;100.00;52533.69;5048939;28;19954;-71
2022/12/31 08:42:17;;;;;;;;;;;;;;;-144.99;100.00;52582.63;5048742;28;20398;-68
2022/12/31 08:44:46;;;;;;;;;;;;;;;-144.99;100.00;52574.47;5048935;28;19940;-68
2022/12/31 08:47:18;;;;;;;;;;;;;;;-144.99;100.00;52541.84;5047334;28;19947;-68
2022/12/31 08:49:44;;;;;;;;;;;;;;;-144.99;100.00;52545.94;5049000;28;19964;-68
2022/12/31 08:52:16;;;;;;;;;;;;;;;-144.99;100.00;52596.88;5046545;28;20525;-67
2022/12/31 08:54:42;;;;;;;;;;;;;;;-144.99;100.00;52517.41;5047235;28;20562;-67
2022/12/31 08:57:13;;;;;;;;;;;;;;;-144.99;100.00;52550.00;5046898;28;20715;-67
2022/12/31 08:59:44;;;;;;;;;;;;;;;-144.99;100.00;52513.31;5048689;28;20098;-68
2022/12/31 09:02:23;;;;;;;;;;;;;;;-144.99;100.00;52578.53;5048277;28;19945;-68
2022/12/31 09:04:56;;;;;;;;;;;;;;;-144.99;100.00;52580.59;5049470;28;20008;-68
2022/12/31 09:07:28;;;;;;;;;;;;;;;-144.99;100.00;52515.34;5046761;28;19944;-68
2022/12/31 09:09:57;;;;;;;;;;;;;;;-144.99;100.00;52550.00;5048471;28;19969;-67
2022/12/31 09:12:28;;;;;;;;;;;;;;;-144.99;100.00;52560.19;5047648;28;19939;-68
2022/12/31 09:14:59;;;;;;;;;;;;;;;-144.99;100.00;52558.16;5049611;28;19945;-74
2022/12/31 09:17:42;;;;;;;;;;;;;;;-144.99;100.00;52505.16;5040793;28;20014;-73
2022/12/31 09:20:15;;;;;;;;;;;;;;;-144.99;100.00;52529.63;5048588;28;19963;-74
2022/12/31 09:22:43;;;;;;;;;;;;;;;-144.99;100.00;52566.31;5048748;28;19941;-73
2022/12/31 09:25:13;;;;;;;;;;;;;;;-144.99;100.00;52598.94;5042201;28;19946;-73
2022/12/31 09:27:43;;;;;;;;;;;;;;;-144.99;100.00;52568.34;5049575;28;20494;-74
2022/12/31 09:30:11;;;;;;;;;;;;;;;-144.99;100.00;52509.25;5048743;28;19968;-73
2022/12/31 09:32:42;;;;;;;;;;;;;;;-144.99;100.00;52541.84;5048653;28;19938;-70
2022/12/31 09:35:14;;;;;;;;;;;;;;;-144.99;100.00;52525.56;5049020;28;19950;-66
2022/12/31 09:37:46;;;;;;;;;;;;;;;-144.99;100.00;52550.00;5046584;28;19957;-60
2022/12/31 09:40:29;;;;;;;;;;;;;;;-144.99;100.00;52562.25;5046423;28;20003;-67
2022/12/31 09:43:23;;;;;;;;;;;;;;;-144.99;100.00;52509.25;5047763;28;19950;-72
2022/12/31 09:46:07;;;;;;;;;;;;;;;-144.99;100.00;52547.97;5011630;28;19941;-72
2022/12/31 09:48:47;;;;;;;;;;;;;;;-144.99;100.00;52558.16;5046222;28;19942;-72
2022/12/31 09:51:20;;;;;;;;;;;;;;;-144.99;100.00;52574.47;5042119;28;19939;-72
2022/12/31 09:54:01;;;;;;;;;;;;;;;-144.99;100.00;52558.16;5040956;28;20405;-72
2022/12/31 09:56:32;;;;;;;;;;;;;;;-144.99;100.00;52537.78;5029449;28;19954;-75
2022/12/31 09:59:03;;;;;;;;;;;;;;;-144.99;100.00;52547.97;5043738;28;19966;-72
2022/12/31 10:01:35;;;;;;;;;;;;;;;-144.99;100.00;52566.31;5040093;28;19944;-73
2022/12/31 10:04:17;;;;;;;;;;;;;;;-144.99;100.00;52554.09;5047535;28;20111;-73
2022/12/31 10:06:48;;;;;;;;;;;;;;;-144.99;100.00;52554.09;5047523;28;19954;-72
2022/12/31 10:09:28;;;;;;;;;;;;;;;-144.99;100.00;52541.84;5041441;28;19964;-73
2022/12/31 10:12:19;;;;;;;;;;;;;;;-144.99;100.00;52545.94;5043119;28;19955;-73
2022/12/31 10:14:55;;;;;;;;;;;;;;;-144.99;100.00;52556.13;5047375;28;19937;-72
2022/12/31 10:17:29;;;;;;;;;;;;;;;-144.99;100.00;52519.44;5048478;28;20006;-73
2022/12/31 10:20:14;;;;;;;;;;;;;;;-144.99;100.00;52509.25;5048906;28;19967;-72
2022/12/31 10:22:59;;;;;;;;;;;;;;;-144.99;100.00;52554.09;5046961;28;19938;-72
2022/12/31 10:25:37;;;;;;;;;;;;;;;-144.99;100.00;52541.84;5048641;28;19949;-72
2022/12/31 10:28:14;;;;;;;;;;;;;;;-144.99;100.00;52521.47;5047679;28;19943;-72
2022/12/31 10:30:47;;;;;;;;;;;;;;;-144.99;100.00;52533.69;5048530;28;19968;-72
2022/12/31 10:33:17;;;;;;;;;;;;;;;-144.99;100.00;52550.00;5046823;28;20382;-72
2022/12/31 10:35:54;;;;;;;;;;;;;;;-144.99;100.00;52558.16;5049826;28;20352;-72
2022/12/31 10:38:29;;;;;;;;;;;;;;;-144.99;100.00;52509.25;5054010;28;19984;-72
2022/12/31 10:41:16;;;;;;;;;;;;;;;-144.99;100.00;52525.56;5047037;28;20297;-72
2022/12/31 10:44:04;;;;;;;;;;;;;;;-144.99;100.00;52574.47;5046519;28;19943;-72
2022/12/31 10:46:49;;;;;;;;;;;;;;;-144.99;100.00;52513.31;5046113;28;19940;-72
2022/12/31 10:49:39;;;;;;;;;;;;;;;-144.99;100.00;52537.78;5047877;28;20460;-72
2022/12/31 10:52:23;;;;;;;;;;;;;;;-144.99;100.00;52497.00;5048150;28;20022;-72
2022/12/31 10:54:59;;;;;;;;;;;;;;;-144.99;100.00;52550.00;5034022;28;20429;-72
2022/12/31 10:57:45;;;;;;;;;;;;;;;-144.99;100.00;52525.56;5048578;28;20014;-72
2022/12/31 11:00:15;;;;;;;;;;;;;;;-144.99;100.00;52537.78;5051880;28;19971;-72
2022/12/31 11:02:59;;;;;;;;;;;;;;;-144.99;100.00;52513.31;5052156;28;20419;-72
2022/12/31 11:05:41;;;;;;;;;;;;;;;-144.99;100.00;52539.81;5052350;28;19954;-72
2022/12/31 11:08:19;;;;;;;;;;;;;;;-144.99;100.00;52509.25;5032971;28;20000;-72
2022/12/31 11:11:10;;;;;;;;;;;;;;;-144.99;100.00;52515.34;5049383;28;20162;-72
2022/12/31 11:13:54;;;;;;;;;;;;;;;-144.99;100.00;52501.09;5051162;28;19939;-72
2022/12/31 11:16:32;;;;;;;;;;;;;;;-144.99;100.00;52470.50;5052087;28;19961;-73
2022/12/31 11:19:01;;;;;;;;;;;;;;;-144.99;100.00;52521.47;5052431;28;20351;-73
2022/12/31 11:21:35;;;;;;;;;;;;;;;-144.99;100.00;52513.31;5049821;28;19987;-72
2022/12/31 11:24:05;;;;;;;;;;;;;;;-144.99;100.00;52488.84;5048494;28;19953;-72
2022/12/31 11:26:41;;;;;;;;;;;;;;;-144.99;100.00;52488.84;5052029;28;19939;-73
2022/12/31 11:29:25;;;;;;;;;;;;;;;-144.99;100.00;52541.84;5049101;28;20375;-73
2022/12/31 11:32:01;;;;;;;;;;;;;;;-144.99;100.00;52492.94;5050259;28;20407;-72
2022/12/31 11:34:47;;;;;;;;;;;;;;;-144.99;100.00;52525.56;5044705;28;19945;-72
2022/12/31 11:37:22;;;;;;;;;;;;;;;-144.99;100.00;52513.31;5049644;28;20004;-72
2022/12/31 11:39:54;;;;;;;;;;;;;;;-144.99;100.00;52521.47;5051519;28;19965;-73
2022/12/31 11:42:24;;;;;;;;;;;;;;;-144.99;100.00;52501.09;5049532;28;19952;-72
2022/12/31 11:44:55;;;;;;;;;;;;;;;-144.99;100.00;52525.56;5050096;28;19954;-72
2022/12/31 11:47:39;;;;;;;;;;;;;;;-144.99;100.00;52519.44;5051895;28;20357;-72
2022/12/31 11:50:20;;;;;;;;;;;;;;;-144.99;100.00;52519.44;5040390;28;20586;-72
2022/12/31 11:52:51;;;;;;;;;;;;;;;-144.99;100.00;52511.28;5050482;28;20004;-72
2022/12/31 11:55:30;;;;;;;;;;;;;;;-144.99;100.00;52505.16;5048333;28;20139;-72
2022/12/31 11:57:59;;;;;;;;;;;;;;;-144.99;100.00;52509.25;5048417;28;20384;-72
2022/12/31 12:00:27;;;;;;;;;;;;;;;-144.99;100.00;52509.25;5049307;28;20004;-73
2022/12/31 12:02:57;;;;;;;;;;;;;;;-144.99;100.00;52509.25;5044202;28;20118;-73
2022/12/31 12:05:24;;;;;;;;;;;;;;;-144.99;100.00;52488.84;5046885;28;19954;-73
2022/12/31 12:07:52;;;;;;;;;;;;;;;-144.99;100.00;52492.94;5050819;28;19955;-73
2022/12/31 12:10:23;;;;;;;;;;;;;;;-144.99;100.00;52460.31;5051077;28;20105;-73
2022/12/31 12:12:50;;;;;;;;;;;;;;;-144.99;100.00;52460.31;5051532;28;20368;-73
2022/12/31 12:15:18;;;;;;;;;;;;;;;-144.99;100.00;52472.56;5056204;28;19966;-72
2022/12/31 12:17:49;;;;;;;;;;;;;;;-144.99;100.00;52492.94;5059597;28;20006;-73
2022/12/31 12:20:19;;;;;;;;;;;;;;;-144.99;100.00;52476.63;5051204;28;19967;-73
2022/12/31 12:22:50;;;;;;;;;;;;;;;-144.99;100.00;52503.13;5051060;28;19969;-73
2022/12/31 12:25:18;;;;;;;;;;;;;;;-144.99;100.00;52525.56;5049114;28;20384;-74
2022/12/31 12:27:44;;;;;;;;;;;;;;;-144.99;100.00;52519.44;5051273;28;20022;-73
2022/12/31 12:30:12;;;;;;;;;;;;;;;-144.99;100.00;52519.44;5050323;28;19963;-73
2022/12/31 12:32:38;;;;;;;;;;;;;;;-144.99;100.00;52480.72;5047709;28;20365;-73
2022/12/31 12:35:15;;;;;;;;;;;;;;;-144.99;100.00;52486.81;5050207;28;20398;-73
2022/12/31 12:37:43;;;;;;;;;;;;;;;-144.99;100.00;52484.78;5038684;28;20068;-73
2022/12/31 12:40:18;;;;;;;;;;;;;;;-144.99;100.00;52464.41;5048252;28;19959;-74
2022/12/31 12:42:46;;;;;;;;;;;;;;;-144.99;100.00;52533.69;5049895;28;19948;-74
2022/12/31 12:45:14;;;;;;;;;;;;;;;-144.99;100.00;52494.97;5050334;28;19966;-74